createdAt,value
2018-05-24T00:00:36.697Z,0.00
2018-05-24T00:01:36.671Z,0.00
2018-05-24T00:02:36.646Z,0.00
2018-05-24T00:03:36.627Z,0.00
2018-05-24T00:04:36.595Z,0.00
2018-05-24T00:05:36.586Z,0.00
2018-05-24T00:06:36.559Z,0.00
2018-05-24T00:07:36.534Z,0.00
2018-05-24T00:08:36.504Z,0.00
2018-05-24T00:09:36.487Z,0.00
2018-05-24T00:10:36.462Z,0.00
2018-05-24T00:11:36.439Z,0.00
2018-05-24T00:12:36.418Z,0.00
2018-05-24T00:13:36.390Z,0.00
2018-05-24T00:14:36.370Z,0.00
2018-05-24T00:15:36.347Z,0.00
2018-05-24T00:16:36.327Z,0.00
2018-05-24T00:17:36.301Z,0.00
2018-05-24T00:18:36.280Z,0.00
2018-05-24T00:19:36.257Z,0.00
2018-05-24T00:20:36.231Z,0.00
2018-05-24T00:21:36.218Z,0.00
2018-05-24T00:22:36.182Z,0.00
2018-05-24T00:23:36.170Z,0.00
2018-05-24T00:24:36.137Z,0.00
2018-05-24T00:25:36.129Z,0.00
2018-05-24T00:26:36.101Z,0.00
2018-05-24T00:27:36.077Z,0.00
2018-05-24T00:28:36.063Z,0.00
2018-05-24T00:29:36.025Z,0.00
2018-05-24T00:30:36.005Z,0.00
2018-05-24T00:31:35.984Z,0.00
2018-05-24T00:32:35.970Z,0.00
2018-05-24T00:33:35.933Z,0.00
2018-05-24T00:34:35.921Z,0.00
2018-05-24T00:35:35.893Z,0.00
2018-05-24T00:36:35.868Z,0.00
2018-05-24T00:37:35.851Z,0.00
2018-05-24T00:38:35.821Z,0.00
2018-05-24T00:39:35.797Z,0.00
2018-05-24T00:40:35.775Z,0.00
2018-05-24T00:41:35.755Z,0.00
2018-05-24T00:42:35.739Z,0.00
2018-05-24T00:43:35.713Z,0.00
2018-05-24T00:44:35.688Z,0.00
2018-05-24T00:45:35.664Z,0.00
2018-05-24T00:46:35.640Z,0.00
2018-05-24T00:47:35.621Z,0.00
2018-05-24T00:48:35.595Z,0.00
2018-05-24T00:49:35.570Z,0.00
2018-05-24T00:50:35.556Z,0.00
2018-05-24T00:51:35.521Z,0.00
2018-05-24T00:52:35.503Z,0.00
2018-05-24T00:53:35.482Z,0.00
2018-05-24T00:54:35.462Z,0.00
2018-05-24T00:55:35.432Z,0.00
2018-05-24T00:56:35.415Z,0.00
2018-05-24T00:57:35.441Z,0.00
2018-05-24T00:58:35.363Z,0.00
2018-05-24T00:59:35.346Z,0.00
2018-05-24T01:00:35.323Z,0.00
2018-05-24T01:01:35.297Z,0.00
2018-05-24T01:02:35.275Z,0.00
2018-05-24T01:03:35.252Z,0.00
2018-05-24T01:04:35.224Z,0.00
2018-05-24T01:05:35.205Z,0.00
2018-05-24T01:06:35.186Z,0.00
2018-05-24T01:07:35.156Z,0.00
2018-05-24T01:08:35.138Z,0.00
2018-05-24T01:09:35.113Z,0.00
2018-05-24T01:10:35.087Z,0.00
2018-05-24T01:11:35.069Z,0.00
2018-05-24T01:12:35.042Z,0.00
2018-05-24T01:13:35.024Z,0.00
2018-05-24T01:14:35.000Z,0.00
2018-05-24T01:15:34.982Z,0.00
2018-05-24T01:16:34.949Z,0.00
2018-05-24T01:17:34.927Z,0.00
2018-05-24T01:18:34.900Z,0.00
2018-05-24T01:19:34.888Z,0.00
2018-05-24T01:20:34.855Z,0.00
2018-05-24T01:21:34.839Z,0.00
2018-05-24T01:22:34.819Z,0.00
2018-05-24T01:23:34.790Z,0.00
2018-05-24T01:24:34.771Z,0.00
2018-05-24T01:25:34.744Z,0.00
2018-05-24T01:26:34.723Z,0.00
2018-05-24T01:27:34.696Z,0.00
2018-05-24T01:28:34.702Z,0.00
2018-05-24T01:29:34.668Z,0.00
2018-05-24T01:30:34.677Z,0.00
2018-05-24T01:31:34.601Z,0.00
2018-05-24T01:32:34.588Z,0.00
2018-05-24T01:33:34.555Z,0.00
2018-05-24T01:34:34.543Z,0.00
2018-05-24T01:35:34.518Z,0.00
2018-05-24T01:36:34.494Z,0.00
2018-05-24T01:37:34.462Z,0.00
2018-05-24T01:38:34.445Z,0.00
2018-05-24T01:39:34.426Z,0.00
2018-05-24T01:40:34.400Z,0.00
2018-05-24T01:41:34.385Z,0.00
2018-05-24T01:42:34.369Z,0.00
2018-05-24T01:43:34.325Z,0.00
2018-05-24T01:44:34.339Z,0.00
2018-05-24T01:45:34.284Z,0.00
2018-05-24T01:46:34.253Z,0.00
2018-05-24T01:47:34.246Z,0.00
2018-05-24T01:48:34.220Z,0.00
2018-05-24T01:49:34.194Z,0.00
2018-05-24T01:50:34.170Z,0.00
2018-05-24T01:51:34.144Z,0.00
2018-05-24T01:52:34.131Z,0.00
2018-05-24T01:53:34.109Z,0.00
2018-05-24T01:54:34.077Z,0.00
2018-05-24T01:55:34.055Z,0.00
2018-05-24T01:56:34.033Z,0.00
2018-05-24T01:57:34.006Z,0.00
2018-05-24T01:58:33.981Z,0.00
2018-05-24T01:59:33.982Z,0.00
2018-05-24T02:00:33.947Z,0.00
2018-05-24T02:01:33.930Z,0.00
2018-05-24T02:02:33.894Z,0.00
2018-05-24T02:03:33.862Z,0.00
2018-05-24T02:04:33.849Z,0.00
2018-05-24T02:05:33.817Z,0.00
2018-05-24T02:06:33.797Z,0.00
2018-05-24T02:07:33.776Z,0.00
2018-05-24T02:08:33.750Z,0.00
2018-05-24T02:09:33.724Z,0.00
2018-05-24T02:10:33.699Z,0.00
2018-05-24T02:11:33.688Z,0.00
2018-05-24T02:12:33.654Z,0.00
2018-05-24T02:13:33.640Z,0.00
2018-05-24T02:14:33.615Z,0.00
2018-05-24T02:15:33.593Z,0.00
2018-05-24T02:16:33.564Z,0.00
2018-05-24T02:17:33.543Z,0.00
2018-05-24T02:18:33.520Z,0.00
2018-05-24T02:19:33.500Z,0.00
2018-05-24T02:20:33.466Z,0.00
2018-05-24T02:21:33.454Z,0.00
2018-05-24T02:22:33.423Z,0.00
2018-05-24T02:23:33.408Z,0.00
2018-05-24T02:24:33.409Z,0.00
2018-05-24T02:25:33.356Z,0.00
2018-05-24T02:26:33.339Z,0.00
2018-05-24T02:27:33.312Z,0.00
2018-05-24T02:28:33.288Z,0.00
2018-05-24T02:29:33.266Z,0.00
2018-05-24T02:30:33.243Z,0.00
2018-05-24T02:31:33.282Z,0.00
2018-05-24T02:32:33.197Z,0.00
2018-05-24T02:33:33.169Z,0.00
2018-05-24T02:34:33.150Z,0.00
2018-05-24T02:35:33.124Z,0.00
2018-05-24T02:36:33.121Z,0.00
2018-05-24T02:37:33.081Z,0.00
2018-05-24T02:38:33.063Z,0.00
2018-05-24T02:39:33.030Z,0.00
2018-05-24T02:40:33.030Z,0.00
2018-05-24T02:41:32.991Z,0.00
2018-05-24T02:42:32.980Z,0.00
2018-05-24T02:43:32.950Z,0.00
2018-05-24T02:44:32.917Z,0.00
2018-05-24T02:45:32.898Z,0.00
2018-05-24T02:46:32.876Z,0.00
2018-05-24T02:47:32.851Z,0.00
2018-05-24T02:48:32.836Z,0.00
2018-05-24T02:49:32.800Z,0.00
2018-05-24T02:50:32.774Z,0.00
2018-05-24T02:51:32.758Z,0.00
2018-05-24T02:52:32.758Z,0.00
2018-05-24T02:53:32.718Z,0.00
2018-05-24T02:54:32.686Z,0.00
2018-05-24T02:55:32.663Z,0.00
2018-05-24T02:56:32.634Z,0.00
2018-05-24T02:57:32.625Z,0.00
2018-05-24T02:58:32.594Z,0.00
2018-05-24T02:59:32.582Z,0.00
2018-05-24T03:00:32.555Z,0.00
2018-05-24T03:01:32.608Z,0.00
2018-05-24T03:02:32.555Z,0.00
2018-05-24T03:03:32.539Z,0.00
2018-05-24T03:04:32.554Z,0.00
2018-05-24T03:05:32.457Z,0.00
2018-05-24T03:06:32.461Z,0.00
2018-05-24T03:07:32.387Z,0.00
2018-05-24T03:08:32.363Z,0.00
2018-05-24T03:09:32.435Z,0.00
2018-05-24T03:10:32.310Z,0.00
2018-05-24T03:11:32.310Z,0.00
2018-05-24T03:12:32.276Z,0.00
2018-05-24T03:13:32.248Z,0.00
2018-05-24T03:14:32.223Z,0.00
2018-05-24T03:15:32.210Z,0.00
2018-05-24T03:16:32.185Z,0.00
2018-05-24T03:17:32.151Z,0.00
2018-05-24T03:18:32.129Z,0.00
2018-05-24T03:19:32.105Z,0.00
2018-05-24T03:20:32.075Z,0.00
2018-05-24T03:21:32.065Z,0.00
2018-05-24T03:22:32.044Z,0.00
2018-05-24T03:23:32.012Z,0.00
2018-05-24T03:24:31.985Z,0.00
2018-05-24T03:25:31.982Z,0.00
2018-05-24T03:26:31.945Z,0.00
2018-05-24T03:27:31.925Z,0.00
2018-05-24T03:28:31.902Z,0.00
2018-05-24T03:29:31.866Z,0.00
2018-05-24T03:30:31.852Z,0.00
2018-05-24T03:31:31.828Z,0.00
2018-05-24T03:32:31.814Z,5.63
2018-05-24T03:33:31.780Z,5.63
2018-05-24T03:34:31.756Z,5.63
2018-05-24T03:35:31.738Z,5.63
2018-05-24T03:36:31.723Z,5.63
2018-05-24T03:37:31.694Z,5.63
2018-05-24T03:38:31.668Z,5.63
2018-05-24T03:39:31.653Z,5.63
2018-05-24T03:40:31.617Z,5.63
2018-05-24T03:41:31.597Z,5.63
2018-05-24T03:42:31.574Z,5.63
2018-05-24T03:43:31.554Z,5.63
2018-05-24T03:44:31.519Z,5.63
2018-05-24T03:45:31.515Z,5.63
2018-05-24T03:46:31.497Z,5.63
2018-05-24T03:47:31.453Z,5.63
2018-05-24T03:48:31.436Z,5.63
2018-05-24T03:49:31.409Z,5.63
2018-05-24T03:50:31.388Z,11.25
2018-05-24T03:51:31.374Z,11.25
2018-05-24T03:52:31.333Z,11.25
2018-05-24T03:53:31.320Z,11.25
2018-05-24T03:54:31.298Z,11.25
2018-05-24T03:55:31.265Z,11.25
2018-05-24T03:56:31.249Z,11.25
2018-05-24T03:57:31.223Z,11.25
2018-05-24T03:58:31.207Z,11.25
2018-05-24T03:59:31.198Z,11.25
2018-05-24T04:00:31.160Z,11.25
2018-05-24T04:01:31.127Z,11.25
2018-05-24T04:02:31.108Z,11.25
2018-05-24T04:03:31.093Z,11.25
2018-05-24T04:04:31.058Z,11.25
2018-05-24T04:05:31.047Z,11.25
2018-05-24T04:06:31.021Z,11.25
2018-05-24T04:07:30.994Z,11.25
2018-05-24T04:08:30.970Z,11.25
2018-05-24T04:09:30.946Z,11.25
2018-05-24T04:10:30.918Z,11.25
2018-05-24T04:11:30.904Z,11.25
2018-05-24T04:12:30.872Z,11.25
2018-05-24T04:13:30.854Z,11.25
2018-05-24T04:14:30.827Z,11.25
2018-05-24T04:15:30.814Z,11.25
2018-05-24T04:16:30.785Z,16.88
2018-05-24T04:17:30.762Z,16.88
2018-05-24T04:18:30.743Z,16.88
2018-05-24T04:19:30.715Z,16.88
2018-05-24T04:20:30.705Z,16.88
2018-05-24T04:21:30.670Z,16.88
2018-05-24T04:22:30.647Z,16.88
2018-05-24T04:23:30.627Z,16.88
2018-05-24T04:24:30.598Z,22.50
2018-05-24T04:25:30.582Z,22.50
2018-05-24T04:26:30.559Z,22.50
2018-05-24T04:27:30.535Z,22.50
2018-05-24T04:28:30.507Z,22.50
2018-05-24T04:29:30.485Z,22.50
2018-05-24T04:30:30.465Z,22.50
2018-05-24T04:31:30.438Z,22.50
2018-05-24T04:32:30.414Z,22.50
2018-05-24T04:33:30.395Z,16.88
2018-05-24T04:34:30.372Z,16.88
2018-05-24T04:35:30.349Z,16.88
2018-05-24T04:36:30.327Z,22.50
2018-05-24T04:37:30.319Z,22.50
2018-05-24T04:38:30.288Z,22.50
2018-05-24T04:39:30.260Z,22.50
2018-05-24T04:40:30.231Z,28.13
2018-05-24T04:41:30.206Z,28.13
2018-05-24T04:42:30.187Z,28.13
2018-05-24T04:43:30.169Z,33.75
2018-05-24T04:44:30.140Z,33.75
2018-05-24T04:45:30.131Z,33.75
2018-05-24T04:46:30.099Z,39.38
2018-05-24T04:47:33.793Z,39.38
2018-05-24T04:48:32.187Z,39.38
2018-05-24T04:49:32.216Z,39.38
2018-05-24T04:50:30.004Z,39.38
2018-05-24T04:51:29.980Z,39.38
2018-05-24T04:52:29.951Z,39.38
2018-05-24T04:53:29.934Z,45.00
2018-05-24T04:54:29.916Z,45.00
2018-05-24T04:55:29.890Z,45.00
2018-05-24T04:56:29.860Z,45.00
2018-05-24T04:57:29.842Z,50.63
2018-05-24T04:58:29.824Z,50.63
2018-05-24T04:59:29.791Z,56.25
2018-05-24T05:00:29.769Z,56.25
2018-05-24T05:01:29.749Z,56.25
2018-05-24T05:02:29.725Z,56.25
2018-05-24T05:03:29.704Z,50.63
2018-05-24T05:04:29.680Z,50.63
2018-05-24T05:05:29.651Z,50.63
2018-05-24T05:06:29.631Z,50.63
2018-05-24T05:07:29.608Z,45.00
2018-05-24T05:08:29.581Z,45.00
2018-05-24T05:09:29.560Z,50.63
2018-05-24T05:10:29.533Z,50.63
2018-05-24T05:11:29.524Z,50.63
2018-05-24T05:12:29.491Z,50.63
2018-05-24T05:13:29.541Z,50.63
2018-05-24T05:14:29.444Z,50.63
2018-05-24T05:15:29.430Z,50.63
2018-05-24T05:16:29.395Z,50.63
2018-05-24T05:17:29.374Z,45.00
2018-05-24T05:18:29.349Z,50.63
2018-05-24T05:19:29.415Z,50.63
2018-05-24T05:20:29.303Z,50.63
2018-05-24T05:21:29.308Z,50.63
2018-05-24T05:22:29.257Z,50.63
2018-05-24T05:23:29.883Z,50.63
2018-05-24T05:24:29.221Z,56.25
2018-05-24T05:25:29.186Z,56.25
2018-05-24T05:26:29.182Z,56.25
2018-05-24T05:27:29.176Z,56.25
2018-05-24T05:28:29.114Z,56.25
2018-05-24T05:29:29.100Z,61.88
2018-05-24T05:30:29.076Z,61.88
2018-05-24T05:31:29.059Z,61.88
2018-05-24T05:32:29.034Z,61.88
2018-05-24T05:33:29.002Z,61.88
2018-05-24T05:34:28.997Z,67.50
2018-05-24T05:35:28.954Z,67.50
2018-05-24T05:36:28.934Z,73.13
2018-05-24T05:37:28.916Z,73.13
2018-05-24T05:38:28.896Z,73.13
2018-05-24T05:39:28.875Z,78.75
2018-05-24T05:40:28.846Z,84.38
2018-05-24T05:41:28.820Z,84.38
2018-05-24T05:42:28.803Z,84.38
2018-05-24T05:43:28.776Z,84.38
2018-05-24T05:44:28.748Z,90.00
2018-05-24T05:45:28.740Z,95.63
2018-05-24T05:46:28.705Z,95.63
2018-05-24T05:47:28.686Z,95.63
2018-05-24T05:48:28.658Z,101.25
2018-05-24T05:49:28.637Z,101.25
2018-05-24T05:50:28.608Z,106.88
2018-05-24T05:51:28.596Z,112.50
2018-05-24T05:52:28.561Z,112.50
2018-05-24T05:53:28.547Z,118.13
2018-05-24T05:54:28.524Z,123.75
2018-05-24T05:55:28.512Z,123.75
2018-05-24T05:56:28.477Z,129.38
2018-05-24T05:57:28.448Z,123.75
2018-05-24T05:58:28.425Z,129.38
2018-05-24T05:59:28.424Z,129.38
2018-05-24T06:00:28.376Z,129.38
2018-05-24T06:01:28.361Z,135.00
2018-05-24T06:02:28.338Z,129.38
2018-05-24T06:03:28.313Z,135.00
2018-05-24T06:04:28.344Z,135.00
2018-05-24T06:05:28.269Z,135.00
2018-05-24T06:06:28.247Z,129.38
2018-05-24T06:07:28.220Z,129.38
2018-05-24T06:08:28.205Z,118.13
2018-05-24T06:09:28.168Z,118.13
2018-05-24T06:10:28.151Z,112.50
2018-05-24T06:11:28.124Z,112.50
2018-05-24T06:12:28.105Z,106.88
2018-05-24T06:13:28.082Z,106.88
2018-05-24T06:14:28.060Z,106.88
2018-05-24T06:15:28.138Z,106.88
2018-05-24T06:16:28.037Z,101.25
2018-05-24T06:17:27.982Z,95.63
2018-05-24T06:18:27.968Z,95.63
2018-05-24T06:19:27.947Z,95.63
2018-05-24T06:20:27.920Z,95.63
2018-05-24T06:21:27.948Z,95.63
2018-05-24T06:22:27.873Z,95.63
2018-05-24T06:23:27.849Z,95.63
2018-05-24T06:24:27.819Z,90.00
2018-05-24T06:25:27.800Z,90.00
2018-05-24T06:26:27.777Z,90.00
2018-05-24T06:27:27.761Z,90.00
2018-05-24T06:28:27.744Z,90.00
2018-05-24T06:29:27.706Z,95.63
2018-05-24T06:30:27.689Z,95.63
2018-05-24T06:31:27.662Z,101.25
2018-05-24T06:32:27.638Z,101.25
2018-05-24T06:33:27.623Z,101.25
2018-05-24T06:34:27.594Z,101.25
2018-05-24T06:35:27.574Z,101.25
2018-05-24T06:36:27.558Z,101.25
2018-05-24T06:37:27.521Z,101.25
2018-05-24T06:38:27.507Z,106.88
2018-05-24T06:39:27.479Z,106.88
2018-05-24T06:40:27.513Z,106.88
2018-05-24T06:41:27.438Z,106.88
2018-05-24T06:42:27.409Z,112.50
2018-05-24T06:43:27.395Z,118.13
2018-05-24T06:44:27.366Z,112.50
2018-05-24T06:45:27.341Z,118.13
2018-05-24T06:46:27.410Z,123.75
2018-05-24T06:47:27.402Z,123.75
2018-05-24T06:48:27.275Z,135.00
2018-05-24T06:49:27.253Z,135.00
2018-05-24T06:50:27.230Z,135.00
2018-05-24T06:51:27.210Z,140.63
2018-05-24T06:52:27.184Z,146.25
2018-05-24T06:53:27.161Z,151.88
2018-05-24T06:54:27.139Z,157.50
2018-05-24T06:55:27.116Z,157.50
2018-05-24T06:56:27.092Z,163.13
2018-05-24T06:57:27.072Z,168.75
2018-05-24T06:58:27.044Z,174.38
2018-05-24T06:59:27.035Z,180.00
2018-05-24T07:00:27.000Z,185.63
2018-05-24T07:01:26.981Z,185.63
2018-05-24T07:02:26.950Z,185.63
2018-05-24T07:03:26.954Z,185.63
2018-05-24T07:04:26.956Z,180.00
2018-05-24T07:05:26.892Z,180.00
2018-05-24T07:06:26.863Z,174.38
2018-05-24T07:07:26.844Z,174.38
2018-05-24T07:08:26.815Z,174.38
2018-05-24T07:09:26.794Z,174.38
2018-05-24T07:10:26.774Z,185.63
2018-05-24T07:11:26.757Z,185.63
2018-05-24T07:12:27.230Z,180.00
2018-05-24T07:13:26.712Z,180.00
2018-05-24T07:14:26.687Z,168.75
2018-05-24T07:15:26.661Z,168.75
2018-05-24T07:16:26.645Z,163.13
2018-05-24T07:17:26.640Z,174.38
2018-05-24T07:18:26.682Z,168.75
2018-05-24T07:19:26.575Z,168.75
2018-05-24T07:20:26.564Z,168.75
2018-05-24T07:21:26.525Z,168.75
2018-05-24T07:22:26.515Z,168.75
2018-05-24T07:23:26.486Z,163.13
2018-05-24T07:24:26.467Z,157.50
2018-05-24T07:25:26.444Z,151.88
2018-05-24T07:26:26.415Z,146.25
2018-05-24T07:27:26.406Z,140.63
2018-05-24T07:28:26.382Z,135.00
2018-05-24T07:29:26.353Z,135.00
2018-05-24T07:30:26.335Z,129.38
2018-05-24T07:31:26.304Z,123.75
2018-05-24T07:32:26.283Z,118.13
2018-05-24T07:33:26.345Z,118.13
2018-05-24T07:34:26.237Z,112.50
2018-05-24T07:35:26.239Z,112.50
2018-05-24T07:36:26.202Z,112.50
2018-05-24T07:37:26.170Z,112.50
2018-05-24T07:38:26.156Z,106.88
2018-05-24T07:39:26.137Z,106.88
2018-05-24T07:40:26.110Z,101.25
2018-05-24T07:41:26.093Z,101.25
2018-05-24T07:42:26.074Z,95.63
2018-05-24T07:43:26.083Z,90.00
2018-05-24T07:44:26.018Z,95.63
2018-05-24T07:45:26.017Z,95.63
2018-05-24T07:46:25.987Z,95.63
2018-05-24T07:47:25.949Z,95.63
2018-05-24T07:48:25.935Z,95.63
2018-05-24T07:49:25.909Z,101.25
2018-05-24T07:50:25.890Z,101.25
2018-05-24T07:51:25.866Z,101.25
2018-05-24T07:52:25.837Z,112.50
2018-05-24T07:53:25.820Z,118.13
2018-05-24T07:54:25.797Z,129.38
2018-05-24T07:55:25.773Z,140.63
2018-05-24T07:56:25.750Z,146.25
2018-05-24T07:57:25.727Z,151.88
2018-05-24T07:58:25.714Z,157.50
2018-05-24T07:59:25.691Z,163.13
2018-05-24T08:00:25.671Z,163.13
2018-05-24T08:01:25.637Z,163.13
2018-05-24T08:02:25.618Z,163.13
2018-05-24T08:03:25.608Z,168.75
2018-05-24T08:04:25.585Z,174.38
2018-05-24T08:05:25.558Z,185.63
2018-05-24T08:06:25.533Z,196.88
2018-05-24T08:07:25.506Z,208.13
2018-05-24T08:08:25.489Z,208.13
2018-05-24T08:09:25.471Z,213.75
2018-05-24T08:10:25.441Z,236.25
2018-05-24T08:11:25.427Z,236.25
2018-05-24T08:12:25.398Z,236.25
2018-05-24T08:13:25.389Z,230.63
2018-05-24T08:14:25.352Z,219.38
2018-05-24T08:15:25.337Z,213.75
2018-05-24T08:16:25.314Z,191.25
2018-05-24T08:17:25.293Z,196.88
2018-05-24T08:18:25.275Z,191.25
2018-05-24T08:19:25.265Z,208.13
2018-05-24T08:20:25.225Z,213.75
2018-05-24T08:21:25.217Z,213.75
2018-05-24T08:22:25.229Z,196.88
2018-05-24T08:23:25.183Z,213.75
2018-05-24T08:24:25.137Z,202.50
2018-05-24T08:25:25.129Z,196.88
2018-05-24T08:26:25.094Z,202.50
2018-05-24T08:27:25.074Z,208.13
2018-05-24T08:28:25.060Z,196.88
2018-05-24T08:29:25.032Z,191.25
2018-05-24T08:30:25.016Z,185.63
2018-05-24T08:31:24.997Z,185.63
2018-05-24T08:32:24.978Z,180.00
2018-05-24T08:33:24.950Z,185.63
2018-05-24T08:34:24.935Z,208.13
2018-05-24T08:35:25.049Z,213.75
2018-05-24T08:36:24.901Z,202.50
2018-05-24T08:37:24.871Z,191.25
2018-05-24T08:38:24.850Z,196.88
2018-05-24T08:39:25.985Z,180.00
2018-05-24T08:40:24.802Z,174.38
2018-05-24T08:41:24.785Z,157.50
2018-05-24T08:42:24.764Z,146.25
2018-05-24T08:43:24.740Z,151.88
2018-05-24T08:44:24.716Z,174.38
2018-05-24T08:45:24.755Z,185.63
2018-05-24T08:46:24.681Z,185.63
2018-05-24T08:47:24.670Z,185.63
2018-05-24T08:48:24.635Z,185.63
2018-05-24T08:49:24.616Z,185.63
2018-05-24T08:50:24.597Z,180.00
2018-05-24T08:51:24.581Z,174.38
2018-05-24T08:52:24.560Z,168.75
2018-05-24T08:53:24.680Z,168.75
2018-05-24T08:54:24.511Z,168.75
2018-05-24T08:55:24.499Z,163.13
2018-05-24T08:56:24.477Z,151.88
2018-05-24T08:57:24.453Z,129.38
2018-05-24T08:58:24.438Z,118.13
2018-05-24T08:59:24.416Z,118.13
2018-05-24T09:00:24.444Z,146.25
2018-05-24T09:01:24.459Z,146.25
2018-05-24T09:02:24.358Z,118.13
2018-05-24T09:03:24.327Z,146.25
2018-05-24T09:04:24.314Z,146.25
2018-05-24T09:05:24.301Z,146.25
2018-05-24T09:06:24.265Z,140.63
2018-05-24T09:07:24.256Z,129.38
2018-05-24T09:08:24.224Z,135.00
2018-05-24T09:09:24.205Z,157.50
2018-05-24T09:10:24.184Z,185.63
2018-05-24T09:11:24.167Z,174.38
2018-05-24T09:12:24.146Z,185.63
2018-05-24T09:13:24.197Z,180.00
2018-05-24T09:14:24.112Z,174.38
2018-05-24T09:15:24.085Z,174.38
2018-05-24T09:16:24.076Z,180.00
2018-05-24T09:17:24.049Z,196.88
2018-05-24T09:18:24.021Z,213.75
2018-05-24T09:19:24.011Z,236.25
2018-05-24T09:20:23.994Z,247.50
2018-05-24T09:21:23.962Z,253.13
2018-05-24T09:22:23.948Z,241.88
2018-05-24T09:23:23.922Z,236.25
2018-05-24T09:24:23.901Z,230.63
2018-05-24T09:25:23.886Z,185.63
2018-05-24T09:26:23.865Z,163.13
2018-05-24T09:27:23.847Z,151.88
2018-05-24T09:28:23.827Z,151.88
2018-05-24T09:29:23.807Z,191.25
2018-05-24T09:30:23.789Z,168.75
2018-05-24T09:31:23.760Z,202.50
2018-05-24T09:32:23.807Z,225.00
2018-05-24T09:33:23.723Z,230.63
2018-05-24T09:34:23.702Z,225.00
2018-05-24T09:35:23.688Z,225.00
2018-05-24T09:36:23.714Z,213.75
2018-05-24T09:37:23.638Z,219.38
2018-05-24T09:38:23.625Z,191.25
2018-05-24T09:39:23.600Z,174.38
2018-05-24T09:40:23.579Z,174.38
2018-05-24T09:41:23.571Z,174.38
2018-05-24T09:42:23.562Z,174.38
2018-05-24T09:43:23.549Z,168.75
2018-05-24T09:44:23.504Z,163.13
2018-05-24T09:45:23.487Z,163.13
2018-05-24T09:46:23.476Z,163.13
2018-05-24T09:47:23.446Z,157.50
2018-05-24T09:48:23.429Z,151.88
2018-05-24T09:49:23.410Z,151.88
2018-05-24T09:50:23.388Z,151.88
2018-05-24T09:51:23.375Z,140.63
2018-05-24T09:52:23.347Z,151.88
2018-05-24T09:53:23.388Z,129.38
2018-05-24T09:54:23.372Z,135.00
2018-05-24T09:55:23.426Z,151.88
2018-05-24T09:56:23.330Z,151.88
2018-05-24T09:57:23.254Z,157.50
2018-05-24T09:58:23.226Z,163.13
2018-05-24T09:59:23.214Z,163.13
2018-05-24T10:00:23.189Z,157.50
2018-05-24T10:01:23.173Z,157.50
2018-05-24T10:02:23.198Z,168.75
2018-05-24T10:03:23.155Z,163.13
2018-05-24T10:04:23.161Z,174.38
2018-05-24T10:05:23.226Z,185.63
2018-05-24T10:06:23.087Z,196.88
2018-05-24T10:07:23.047Z,180.00
2018-05-24T10:08:23.038Z,180.00
2018-05-24T10:09:23.084Z,185.63
2018-05-24T10:10:23.061Z,202.50
2018-05-24T10:11:23.033Z,196.88
2018-05-24T10:12:23.022Z,196.88
2018-05-24T10:13:22.941Z,202.50
2018-05-24T10:14:22.915Z,191.25
2018-05-24T10:15:22.899Z,185.63
2018-05-24T10:16:23.009Z,174.38
2018-05-24T10:17:22.859Z,180.00
2018-05-24T10:18:22.844Z,191.25
2018-05-24T10:19:22.820Z,202.50
2018-05-24T10:20:22.804Z,213.75
2018-05-24T10:21:22.785Z,230.63
2018-05-24T10:22:22.766Z,241.88
2018-05-24T10:23:22.744Z,241.88
2018-05-24T10:24:22.729Z,236.25
2018-05-24T10:25:22.712Z,230.63
2018-05-24T10:26:22.691Z,236.25
2018-05-24T10:27:22.668Z,236.25
2018-05-24T10:28:22.644Z,230.63
2018-05-24T10:29:22.724Z,236.25
2018-05-24T10:30:22.612Z,230.63
2018-05-24T10:31:22.588Z,225.00
2018-05-24T10:32:22.573Z,219.38
2018-05-24T10:33:22.556Z,213.75
2018-05-24T10:34:22.532Z,208.13
2018-05-24T10:35:22.515Z,208.13
2018-05-24T10:36:22.493Z,202.50
2018-05-24T10:37:22.494Z,196.88
2018-05-24T10:38:22.459Z,185.63
2018-05-24T10:39:22.442Z,185.63
2018-05-24T10:40:22.426Z,163.13
2018-05-24T10:42:22.379Z,146.25
2018-05-24T10:43:22.357Z,140.63
2018-05-24T10:44:22.341Z,129.38
2018-05-24T10:45:22.329Z,123.75
2018-05-24T10:46:22.306Z,123.75
2018-05-24T10:47:22.290Z,129.38
2018-05-24T10:48:22.262Z,135.00
2018-05-24T10:49:22.256Z,140.63
2018-05-24T10:50:22.228Z,151.88
2018-05-24T10:51:22.269Z,157.50
2018-05-24T10:52:22.189Z,157.50
2018-05-24T10:53:22.173Z,163.13
2018-05-24T10:54:22.151Z,174.38
2018-05-24T10:55:22.136Z,185.63
2018-05-24T10:56:22.111Z,196.88
2018-05-24T10:57:22.095Z,208.13
2018-05-24T10:58:22.073Z,219.38
2018-05-24T10:59:22.062Z,236.25
2018-05-24T11:00:22.031Z,241.88
2018-05-24T11:01:22.026Z,247.50
2018-05-24T11:02:22.004Z,247.50
2018-05-24T11:03:21.981Z,247.50
2018-05-24T11:04:22.018Z,258.75
2018-05-24T11:05:21.935Z,281.25
2018-05-24T11:06:22.044Z,281.25
2018-05-24T11:07:21.906Z,292.50
2018-05-24T11:08:21.887Z,298.13
2018-05-24T11:09:21.859Z,281.25
2018-05-24T11:10:21.844Z,292.50
2018-05-24T11:11:21.823Z,298.13
2018-05-24T11:12:21.804Z,264.38
2018-05-24T11:13:21.782Z,258.75
2018-05-24T11:14:21.771Z,258.75
2018-05-24T11:15:21.823Z,253.13
2018-05-24T11:16:21.730Z,236.25
2018-05-24T11:17:21.784Z,236.25
2018-05-24T11:18:21.691Z,219.38
2018-05-24T11:19:21.668Z,236.25
2018-05-24T11:20:21.649Z,219.38
2018-05-24T11:21:21.635Z,185.63
2018-05-24T11:22:21.618Z,174.38
2018-05-24T11:23:21.588Z,180.00
2018-05-24T11:24:21.576Z,185.63
2018-05-24T11:25:21.666Z,180.00
2018-05-24T11:26:21.541Z,180.00
2018-05-24T11:27:21.519Z,196.88
2018-05-24T11:28:21.499Z,219.38
2018-05-24T11:29:21.480Z,236.25
2018-05-24T11:30:21.461Z,253.13
2018-05-24T11:31:21.442Z,230.63
2018-05-24T11:32:21.455Z,225.00
2018-05-24T11:33:21.399Z,208.13
2018-05-24T11:34:21.386Z,202.50
2018-05-24T11:35:21.359Z,196.88
2018-05-24T11:36:21.353Z,185.63
2018-05-24T11:37:21.396Z,180.00
2018-05-24T11:38:21.307Z,174.38
2018-05-24T11:39:21.336Z,168.75
2018-05-24T11:40:21.268Z,168.75
2018-05-24T11:41:21.245Z,168.75
2018-05-24T11:42:21.231Z,168.75
2018-05-24T11:43:21.329Z,163.13
2018-05-24T11:44:21.191Z,157.50
2018-05-24T11:45:21.202Z,157.50
2018-05-24T11:46:21.157Z,151.88
2018-05-24T11:47:21.127Z,146.25
2018-05-24T11:48:21.110Z,146.25
2018-05-24T11:49:21.093Z,140.63
2018-05-24T11:50:21.080Z,135.00
2018-05-24T11:51:21.061Z,140.63
2018-05-24T11:52:21.038Z,146.25
2018-05-24T11:53:21.012Z,140.63
2018-05-24T11:54:20.995Z,140.63
2018-05-24T11:55:20.983Z,140.63
2018-05-24T11:56:20.957Z,135.00
2018-05-24T11:57:20.935Z,129.38
2018-05-24T11:58:20.923Z,129.38
2018-05-24T11:59:20.903Z,123.75
2018-05-24T12:00:20.904Z,118.13
2018-05-24T12:01:20.857Z,118.13
2018-05-24T12:02:20.837Z,112.50
2018-05-24T12:03:20.823Z,112.50
2018-05-24T12:04:20.798Z,112.50
2018-05-24T12:05:20.776Z,112.50
2018-05-24T12:06:20.764Z,118.13
2018-05-24T12:07:20.740Z,118.13
2018-05-24T12:08:20.716Z,123.75
2018-05-24T12:09:20.707Z,129.38
2018-05-24T12:10:20.686Z,129.38
2018-05-24T12:11:20.664Z,129.38
2018-05-24T12:12:20.639Z,129.38
2018-05-24T12:13:20.627Z,129.38
2018-05-24T12:14:20.602Z,123.75
2018-05-24T12:15:20.627Z,123.75
2018-05-24T12:16:20.559Z,123.75
2018-05-24T12:17:20.544Z,118.13
2018-05-24T12:18:20.523Z,118.13
2018-05-24T12:19:20.500Z,118.13
2018-05-24T12:20:20.482Z,123.75
2018-05-24T12:21:20.466Z,129.38
2018-05-24T12:22:20.442Z,135.00
2018-05-24T12:23:20.422Z,140.63
2018-05-24T12:24:20.398Z,146.25
2018-05-24T12:25:20.381Z,146.25
2018-05-24T12:26:20.358Z,146.25
2018-05-24T12:27:20.346Z,151.88
2018-05-24T12:28:20.314Z,151.88
2018-05-24T12:29:20.305Z,151.88
2018-05-24T12:30:20.283Z,157.50
2018-05-24T12:31:20.266Z,151.88
2018-05-24T12:32:20.240Z,151.88
2018-05-24T12:33:20.224Z,151.88
2018-05-24T12:34:20.198Z,146.25
2018-05-24T12:35:20.291Z,140.63
2018-05-24T12:36:20.162Z,129.38
2018-05-24T12:37:20.133Z,123.75
2018-05-24T12:38:20.114Z,118.13
2018-05-24T12:39:20.103Z,112.50
2018-05-24T12:40:20.075Z,118.13
2018-05-24T12:41:20.062Z,123.75
2018-05-24T12:42:20.038Z,129.38
2018-05-24T12:43:20.025Z,129.38
2018-05-24T12:44:19.995Z,129.38
2018-05-24T12:45:19.985Z,135.00
2018-05-24T12:46:19.960Z,135.00
2018-05-24T12:47:19.939Z,135.00
2018-05-24T12:48:19.916Z,140.63